Time;durP1;ratioP1;P1;durP2;ratioP2;P2;SDS_P1;SDS_P2;PMS_P1;PMS_P2;Temp;Humidity;BMP_temperature;BMP_pressure;BME280_temperature;BME280_humidity;BME280_pressure;Samples;Min_cycle;Max_cycle;Signal;HPM_P1;HPM_P2
2023/05/23 00:00:58;;;;;;;;;4.50;4.50;;;;;11.46;89.21;98159.25;4821637;29;103248;-73
2023/05/23 00:03:26;;;;;;;;;4.50;4.25;;;;;11.42;89.54;98163.44;4815446;28;101930;-74
2023/05/23 00:06:03;;;;;;;;;5.00;4.25;;;;;11.30;90.75;98159.75;4814584;29;103293;-74
2023/05/23 00:08:46;;;;;;;;;8.00;8.00;;;;;11.18;91.24;98156.06;4823431;28;103232;-74
2023/05/23 00:11:36;;;;;;;;;9.50;8.25;;;;;11.17;91.08;98149.00;4820215;28;102025;-74
2023/05/23 00:14:24;;;;;;;;;8.00;7.00;;;;;11.07;91.43;98141.34;4820589;29;102954;-73
2023/05/23 00:17:01;;;;;;;;;9.00;8.00;;;;;11.07;92.06;98148.66;4816915;28;102312;-74
2023/05/23 00:19:28;;;;;;;;;9.25;7.50;;;;;11.09;91.20;98151.94;4819298;28;104084;-73
2023/05/23 00:21:57;;;;;;;;;8.75;5.75;;;;;11.09;91.18;98144.66;4819297;28;102719;-74
2023/05/23 00:24:24;;;;;;;;;6.50;5.75;;;;;11.05;91.96;98139.91;4821404;28;101909;-74
2023/05/23 00:26:51;;;;;;;;;4.00;3.50;;;;;11.10;90.80;98151.75;4821536;28;102347;-73
2023/05/23 00:29:18;;;;;;;;;3.00;3.00;;;;;11.09;90.14;98146.53;4824724;28;104030;-73
2023/05/23 00:31:45;;;;;;;;;2.50;2.25;;;;;11.07;90.09;98135.13;4818615;28;102337;-74
2023/05/23 00:34:18;;;;;;;;;4.00;2.50;;;;;11.04;89.74;98138.22;4818036;28;102270;-74
2023/05/23 00:36:49;;;;;;;;;3.00;3.00;;;;;11.01;90.69;98138.66;4821210;28;102091;-74
2023/05/23 00:39:19;;;;;;;;;4.25;3.00;;;;;10.99;90.29;98143.44;4814203;28;109134;-74
2023/05/23 00:41:51;;;;;;;;;2.50;2.00;;;;;10.97;89.28;98142.84;4820031;28;102086;-74
2023/05/23 00:44:20;;;;;;;;;3.00;2.25;;;;;10.89;90.59;98152.06;4819024;29;102105;-73
2023/05/23 00:46:54;;;;;;;;;4.50;4.00;;;;;10.88;90.84;98139.56;4821293;28;102059;-74
2023/05/23 00:49:21;;;;;;;;;4.50;2.50;;;;;10.82;91.49;98140.41;4816713;28;108581;-72
2023/05/23 00:51:50;;;;;;;;;2.00;2.00;;;;;10.82;91.65;98140.41;4815516;28;102873;-74
2023/05/23 00:54:29;;;;;;;;;5.25;2.50;;;;;10.50;91.73;98098.91;4826751;28;102332;-73
2023/05/23 00:56:57;;;;;;;;;2.25;2.25;;;;;10.74;92.86;98148.75;4820053;28;102085;-74
2023/05/23 00:59:25;;;;;;;;;4.50;2.00;;;;;10.72;92.47;98145.44;4819727;28;104210;-74
2023/05/23 01:01:54;;;;;;;;;3.00;2.25;;;;;10.67;93.18;98146.06;4818121;28;103200;-72
2023/05/23 01:04:32;;;;;;;;;1.75;1.50;;;;;10.56;93.13;98133.22;4819302;28;102168;-72
2023/05/23 01:07:04;;;;;;;;;2.50;2.00;;;;;10.60;94.20;98145.28;4817560;28;102778;-73
2023/05/23 01:09:45;;;;;;;;;3.00;3.00;;;;;10.56;94.71;98148.59;4815686;28;103621;-74
2023/05/23 01:12:40;;;;;;;;;2.00;2.00;;;;;10.54;95.23;98143.41;4814685;28;102213;-73
2023/05/23 01:15:43;;;;;;;;;2.00;2.00;;;;;10.53;94.65;98149.03;4817468;28;101917;-74
2023/05/23 01:18:42;;;;;;;;;2.00;2.00;;;;;10.50;94.28;98150.28;4821499;28;102661;-74
2023/05/23 01:21:21;;;;;;;;;3.00;2.50;;;;;10.38;93.22;98143.03;4818563;28;107905;-74
2023/05/23 01:24:10;;;;;;;;;3.75;3.50;;;;;10.32;93.57;98143.88;4815418;28;102461;-73
2023/05/23 01:26:49;;;;;;;;;3.00;3.00;;;;;10.28;93.16;98143.47;4816575;28;110385;-73
2023/05/23 01:29:26;;;;;;;;;4.50;2.75;;;;;10.19;93.87;98137.44;4821113;28;102110;-74
2023/05/23 01:31:57;;;;;;;;;2.00;1.50;;;;;10.14;93.31;98136.38;4817102;28;108910;-73
2023/05/23 01:34:24;;;;;;;;;3.75;3.50;;;;;10.09;93.27;98144.28;4817103;28;103071;-73
2023/05/23 01:36:55;;;;;;;;;1.50;1.50;;;;;9.98;92.84;98140.34;4823742;28;101988;-74
2023/05/23 01:39:23;;;;;;;;;4.00;4.00;;;;;9.78;95.31;98137.63;4819609;28;102145;-70
2023/05/23 01:41:51;;;;;;;;;7.75;6.00;;;;;9.66;97.03;98139.31;4821020;29;104133;-74
2023/05/23 01:44:19;;;;;;;;;6.00;4.00;;;;;9.65;96.74;98137.63;4820150;29;102698;-74
2023/05/23 01:46:47;;;;;;;;;5.00;3.25;;;;;9.63;95.81;98142.44;4819670;29;104836;-74
2023/05/23 01:49:17;;;;;;;;;5.50;4.00;;;;;9.52;95.90;98126.84;4822252;29;102412;-74
2023/05/23 01:51:45;;;;;;;;;2.00;2.00;;;;;9.59;95.53;98140.34;4822236;29;104010;-74
2023/05/23 01:54:15;;;;;;;;;3.75;3.75;;;;;9.55;94.05;98142.59;4819908;28;102014;-73
2023/05/23 01:56:43;;;;;;;;;3.00;3.00;;;;;9.49;94.57;98148.00;4816169;28;102134;-74
2023/05/23 01:59:11;;;;;;;;;2.25;1.75;;;;;9.43;94.88;98136.16;4822523;28;101977;-74
2023/05/23 02:01:38;;;;;;;;;1.00;0.00;;;;;9.36;96.28;98132.63;4821299;29;104243;-73
2023/05/23 02:04:05;;;;;;;;;5.25;5.25;;;;;9.24;98.31;98128.84;4817580;28;102278;-74
2023/05/23 02:06:33;;;;;;;;;10.00;9.00;;;;;9.15;99.47;98143.56;4819623;28;102303;-74
2023/05/23 02:09:00;;;;;;;;;10.25;9.00;;;;;9.08;100.00;98140.03;4823275;29;102021;-73
2023/05/23 02:11:27;;;;;;;;;12.75;12.75;;;;;8.96;100.00;98132.50;4820547;28;104045;-74
2023/05/23 02:13:54;;;;;;;;;12.50;12.00;;;;;8.94;100.00;98134.59;4823739;28;102069;-74
2023/05/23 02:16:22;;;;;;;;;13.00;10.00;;;;;8.96;100.00;98137.91;4824707;29;102027;-73
2023/05/23 02:18:51;;;;;;;;;9.75;7.50;;;;;8.94;100.00;98131.06;4827550;28;102131;-73
2023/05/23 02:21:18;;;;;;;;;9.50;6.50;;;;;8.99;100.00;98135.84;4824263;29;108803;-73
2023/05/23 02:23:45;;;;;;;;;7.25;7.00;;;;;9.02;100.00;98133.56;4823043;29;102199;-74
2023/05/23 02:26:12;;;;;;;;;8.50;6.50;;;;;8.88;100.00;98113.81;4820239;28;102261;-74
2023/05/23 02:28:40;;;;;;;;;9.75;9.75;;;;;8.81;100.00;98125.63;4825136;28;102274;-74
2023/05/23 02:31:07;;;;;;;;;8.75;8.00;;;;;8.79;100.00;98149.22;4821733;29;106622;-73
2023/05/23 02:33:34;;;;;;;;;11.75;11.50;;;;;8.78;100.00;98139.50;4821015;29;104491;-74
2023/05/23 02:36:01;;;;;;;;;10.00;7.50;;;;;8.76;100.00;98139.69;4821709;28;103217;-74
2023/05/23 02:38:29;;;;;;;;;7.50;6.50;;;;;8.80;100.00;98138.25;4821757;29;102210;-74
2023/05/23 02:40:56;;;;;;;;;8.00;5.00;;;;;8.80;100.00;98122.09;4822350;28;104032;-74
2023/05/23 02:43:23;;;;;;;;;8.00;6.00;;;;;8.83;100.00;98131.63;4824265;28;103081;-74
2023/05/23 02:45:50;;;;;;;;;3.75;3.75;;;;;8.81;100.00;98123.75;4822846;28;103146;-74
2023/05/23 02:48:17;;;;;;;;;5.75;5.00;;;;;8.78;100.00;98126.03;4821439;29;102250;-75
2023/05/23 02:50:44;;;;;;;;;5.75;5.00;;;;;8.73;100.00;98117.72;4823550;29;104169;-74
2023/05/23 02:53:11;;;;;;;;;8.25;6.75;;;;;8.70;100.00;98127.00;4823577;28;102880;-74
2023/05/23 02:55:39;;;;;;;;;11.75;10.50;;;;;8.70;100.00;98127.00;4824669;28;102274;-74
2023/05/23 02:58:06;;;;;;;;;7.00;6.75;;;;;8.77;100.00;98124.34;4825067;29;102003;-74
2023/05/23 03:00:33;;;;;;;;;8.75;7.50;;;;;8.73;100.00;98125.78;4824840;29;104161;-74
2023/05/23 03:03:01;;;;;;;;;17.50;15.75;;;;;8.63;100.00;98118.09;4822138;28;102937;-74
2023/05/23 03:05:28;;;;;;;;;12.50;11.50;;;;;8.56;100.00;98114.50;4816475;29;102328;-74
2023/05/23 03:07:56;;;;;;;;;18.00;15.00;;;;;8.60;100.00;98121.16;4824717;29;102047;-74
2023/05/23 03:10:23;;;;;;;;;11.00;11.00;;;;;8.69;100.00;98121.84;4821878;28;104105;-71
2023/05/23 03:12:50;;;;;;;;;9.50;8.00;;;;;8.72;100.00;98116.03;4823683;29;102934;-74
2023/05/23 03:15:17;;;;;;;;;6.00;6.00;;;;;8.74;100.00;98112.09;4821525;29;101984;-74
2023/05/23 03:17:44;;;;;;;;;8.00;6.00;;;;;8.80;100.00;98116.69;4824266;29;102047;-74
2023/05/23 03:20:12;;;;;;;;;8.00;8.00;;;;;8.78;100.00;98118.75;4821291;29;104112;-75
2023/05/23 03:22:41;;;;;;;;;7.00;6.00;;;;;8.78;100.00;98117.94;4824615;29;102400;-75
2023/05/23 03:25:08;;;;;;;;;5.00;5.00;;;;;8.69;100.00;98103.78;4824766;28;102506;-74
2023/05/23 03:27:35;;;;;;;;;10.00;9.25;;;;;8.58;100.00;98101.69;4821508;28;102061;-74
2023/05/23 03:30:03;;;;;;;;;18.75;17.50;;;;;8.51;100.00;98096.25;4821748;28;104069;-74
2023/05/23 03:32:30;;;;;;;;;16.50;14.00;;;;;8.65;100.00;98107.91;4824205;28;103059;-74
2023/05/23 03:34:57;;;;;;;;;15.50;12.75;;;;;8.69;100.00;98103.78;4816313;28;103802;-74
2023/05/23 03:37:24;;;;;;;;;13.50;13.25;;;;;8.74;100.00;98106.72;4821712;28;102367;-72
2023/05/23 03:39:51;;;;;;;;;16.75;12.00;;;;;8.81;100.00;98107.59;4822427;28;104214;-73
2023/05/23 03:42:18;;;;;;;;;14.25;13.00;;;;;8.86;100.00;98107.81;4822239;28;103494;-74
2023/05/23 03:44:45;;;;;;;;;14.25;13.00;;;;;8.86;100.00;98105.13;4822607;28;102211;-74
2023/05/23 03:47:12;;;;;;;;;15.75;13.75;;;;;8.90;100.00;98111.75;4822544;28;106471;-74
2023/05/23 03:49:39;;;;;;;;;15.25;11.25;;;;;9.01;100.00;98110.31;4819252;28;104016;-74
2023/05/23 03:52:07;;;;;;;;;13.00;11.50;;;;;9.13;100.00;98106.03;4822612;28;102085;-74
2023/05/23 03:54:34;;;;;;;;;14.50;12.50;;;;;9.15;100.00;98114.72;4823999;28;102238;-74
2023/05/23 03:57:01;;;;;;;;;17.25;15.25;;;;;9.15;100.00;98113.88;4823182;29;102208;-73
2023/05/23 03:59:28;;;;;;;;;17.00;14.50;;;;;9.24;100.00;98112.66;4823082;28;104273;-75
2023/05/23 04:01:57;;;;;;;;;14.50;13.00;;;;;9.27;100.00;98102.31;4824163;28;102206;-74
2023/05/23 04:04:25;;;;;;;;;16.50;15.00;;;;;9.27;100.00;98096.91;4822485;28;101847;-74
2023/05/23 04:06:52;;;;;;;;;18.75;16.50;;;;;9.39;100.00;98106.06;4826094;29;102443;-74
2023/05/23 04:09:19;;;;;;;;;17.00;13.50;;;;;9.50;100.00;98106.50;4821508;29;108817;-74
2023/05/23 04:11:47;;;;;;;;;18.00;17.75;;;;;9.57;100.00;98097.34;4818989;29;102088;-74
2023/05/23 04:14:14;;;;;;;;;18.75;13.25;;;;;9.67;100.00;98096.94;4821136;28;103644;-74
2023/05/23 04:16:41;;;;;;;;;13.75;13.50;;;;;9.84;100.00;98092.78;4823640;29;102237;-74
2023/05/23 04:19:08;;;;;;;;;16.50;13.00;;;;;10.05;100.00;98094.41;4822764;29;104170;-74
2023/05/23 04:21:35;;;;;;;;;8.25;8.25;;;;;10.23;100.00;98103.56;4820669;28;102335;-74
2023/05/23 04:24:02;;;;;;;;;12.50;10.75;;;;;10.28;100.00;98100.22;4819496;29;102046;-74
2023/05/23 04:26:29;;;;;;;;;14.75;13.50;;;;;10.40;100.00;98103.94;4821868;28;101967;-74
2023/05/23 04:28:58;;;;;;;;;14.25;13.00;;;;;10.51;100.00;98100.59;4815306;28;104035;-74
2023/05/23 04:31:25;;;;;;;;;12.25;11.50;;;;;10.73;99.02;98093.00;4820134;29;103200;-73
2023/05/23 04:33:52;;;;;;;;;15.00;13.75;;;;;11.19;95.21;98092.78;4820887;29;101957;-77
2023/05/23 04:36:19;;;;;;;;;13.75;11.50;;;;;11.70;93.70;98094.53;4823181;29;102457;-75
2023/05/23 04:38:46;;;;;;;;;11.25;9.50;;;;;11.99;90.27;98097.41;4818395;28;104079;-74
2023/05/23 04:41:15;;;;;;;;;14.25;13.25;;;;;12.05;88.63;98095.72;4821592;28;102132;-74
2023/05/23 04:43:43;;;;;;;;;11.25;11.00;;;;;12.43;88.88;98090.91;4817913;28;102224;-74
2023/05/23 04:46:12;;;;;;;;;12.50;11.50;;;;;12.92;84.25;98094.53;4823694;29;101981;-74
2023/05/23 04:48:41;;;;;;;;;15.00;14.00;;;;;13.26;81.18;98083.03;4820375;28;104261;-74
2023/05/23 04:51:08;;;;;;;;;16.00;15.00;;;;;14.00;80.32;98087.09;4819056;28;102072;-74
2023/05/23 04:53:35;;;;;;;;;16.75;14.00;;;;;14.10;78.81;98079.16;4817580;28;102440;-74
2023/05/23 04:56:02;;;;;;;;;12.75;11.25;;;;;14.71;78.24;98083.28;4821815;28;101940;-73
2023/05/23 04:58:30;;;;;;;;;16.00;15.00;;;;;15.36;75.98;98074.75;4817850;28;104245;-73
2023/05/23 05:00:57;;;;;;;;;12.25;11.75;;;;;15.03;74.86;98080.94;4819431;29;102119;-73
2023/05/23 05:03:25;;;;;;;;;12.50;11.00;;;;;14.74;75.91;98082.78;4819693;28;101836;-72
2023/05/23 05:05:52;;;;;;;;;12.50;11.50;;;;;14.88;76.85;98073.28;4823537;28;102360;-73
2023/05/23 05:08:19;;;;;;;;;13.50;12.75;;;;;15.11;74.35;98078.66;4817876;29;112267;-73
2023/05/23 05:10:46;;;;;;;;;17.25;15.00;;;;;15.61;73.91;98080.69;4820965;29;102231;-73
2023/05/23 05:13:13;;;;;;;;;13.00;11.50;;;;;15.81;71.31;98072.03;4819154;29;102211;-73
2023/05/23 05:15:41;;;;;;;;;11.75;11.75;;;;;15.80;70.46;98082.13;4807127;29;102280;-73
2023/05/23 05:18:08;;;;;;;;;20.50;19.00;;;;;15.95;75.32;98085.09;4821591;29;104047;-74
2023/05/23 05:20:35;;;;;;;;;13.75;12.50;;;;;16.19;69.90;98085.75;4821352;29;103070;-74
2023/05/23 05:23:02;;;;;;;;;10.25;9.25;;;;;16.41;69.17;98062.06;4821404;29;102277;-73
2023/05/23 05:25:31;;;;;;;;;12.50;12.50;;;;;16.45;67.76;98068.66;4824536;28;102416;-73
2023/05/23 05:28:04;;;;;;;;;10.00;10.00;;;;;16.70;66.98;98078.31;4820978;28;104042;-74
2023/05/23 05:30:34;;;;;;;;;16.75;14.25;;;;;16.75;67.54;98067.47;4820332;29;102335;-74
2023/05/23 05:33:02;;;;;;;;;15.50;13.00;;;;;16.80;68.23;98073.81;4821271;29;102023;-73
2023/05/23 05:35:31;;;;;;;;;15.25;14.25;;;;;17.59;65.50;98068.72;4818369;29;102393;-73
2023/05/23 05:37:59;;;;;;;;;16.25;15.00;;;;;17.97;65.08;98066.84;4818666;28;104096;-73
2023/05/23 05:40:26;;;;;;;;;14.00;14.00;;;;;18.44;65.45;98065.00;4822322;29;102576;-72
2023/05/23 05:42:53;;;;;;;;;12.25;12.00;;;;;18.32;59.56;98067.13;4830356;28;102416;-73
2023/05/23 05:45:20;;;;;;;;;15.50;14.00;;;;;17.93;61.23;98065.72;4828036;28;102408;-73
2023/05/23 05:47:47;;;;;;;;;15.33;15.33;;;;;18.52;63.33;98056.28;4827123;28;104029;-73
2023/05/23 05:50:14;;;;;;;;;16.00;14.25;;;;;19.08;59.45;98064.81;4828279;28;102152;-73
2023/05/23 05:52:41;;;;;;;;;14.00;13.67;;;;;19.46;58.05;98072.59;4826486;29;102230;-73
2023/05/23 05:55:12;;;;;;;;;14.33;13.67;;;;;19.79;58.27;98068.56;4829588;28;101992;-74
2023/05/23 05:57:40;;;;;;;;;9.67;9.00;;;;;20.29;54.85;98069.63;4826576;29;104021;-73
2023/05/23 06:00:13;;;;;;;;;13.00;13.00;;;;;20.13;58.12;98063.31;4826067;29;101983;-74
2023/05/23 06:02:47;;;;;;;;;12.67;11.67;;;;;20.66;55.83;98064.66;4827367;28;102382;-74
2023/05/23 06:05:17;;;;;;;;;17.00;14.33;;;;;20.80;56.57;98054.69;4827104;28;102337;-74
2023/05/23 06:07:46;;;;;;;;;13.00;13.00;;;;;20.09;55.11;98037.53;4825683;29;104364;-74
2023/05/23 06:10:13;;;;;;;;;11.33;11.33;;;;;20.85;55.53;98056.59;4825359;28;107754;-74
2023/05/23 06:12:41;;;;;;;;;10.00;8.67;;;;;20.30;53.21;98050.19;4826586;28;102118;-73
2023/05/23 06:15:09;;;;;;;;;12.00;11.00;;;;;19.83;54.38;98044.13;4824750;29;101955;-72
2023/05/23 06:17:36;;;;;;;;;12.33;12.33;;;;;20.40;57.17;98044.66;4825364;29;104053;-73
2023/05/23 06:20:03;;;;;;;;;15.67;13.67;;;;;20.90;58.05;98049.16;4826239;29;103017;-73
2023/05/23 06:22:31;;;;;;;;;11.67;10.00;;;;;21.24;51.64;98038.34;4826875;29;102208;-74
2023/05/23 06:24:58;;;;;;;;;11.00;10.00;;;;;21.43;52.06;98046.75;4825706;29;102120;-74
2023/05/23 06:27:25;;;;;;;;;13.67;12.33;;;;;21.26;55.22;98047.09;4827208;28;104022;-73
2023/05/23 06:29:52;;;;;;;;;17.00;13.33;;;;;20.76;53.66;98050.03;4826983;28;102271;-72
2023/05/23 06:32:19;;;;;;;;;15.00;14.00;;;;;20.87;54.57;98046.16;4826012;28;101859;-73
2023/05/23 06:34:46;;;;;;;;;10.00;9.00;;;;;21.44;52.52;98047.53;4823017;28;102019;-74
2023/05/23 06:37:13;;;;;;;;;8.00;8.00;;;;;21.72;49.54;98022.88;4826434;28;104029;-74
2023/05/23 06:39:40;;;;;;;;;9.00;8.33;;;;;22.04;52.39;98040.81;4826645;28;101962;-74
2023/05/23 06:42:07;;;;;;;;;10.33;10.00;;;;;22.27;51.36;98040.06;4822631;28;101931;-74
2023/05/23 06:44:34;;;;;;;;;9.67;9.67;;;;;22.47;48.36;98033.53;4824374;28;101990;-73
2023/05/23 06:47:01;;;;;;;;;10.00;9.00;;;;;22.56;48.86;98034.53;4819125;28;104160;-74
2023/05/23 06:49:28;;;;;;;;;2.00;2.00;;;;;22.77;49.32;98030.47;4827669;28;102261;-74
2023/05/23 06:51:55;;;;;;;;;7.67;7.67;;;;;22.87;46.77;98032.28;4822891;28;101873;-73
2023/05/23 06:54:22;;;;;;;;;9.00;8.67;;;;;22.77;47.65;98027.69;4827904;29;102125;-73
2023/05/23 06:56:49;;;;;;;;;14.33;13.00;;;;;22.88;50.60;98025.63;4822010;28;104001;-74
2023/05/23 06:59:16;;;;;;;;;9.33;9.00;;;;;22.73;47.88;98015.63;4807389;28;101988;-74
2023/05/23 07:01:43;;;;;;;;;7.00;7.00;;;;;22.90;50.06;98026.16;4817246;28;102877;-74
2023/05/23 07:04:11;;;;;;;;;11.33;11.00;;;;;21.84;47.96;98033.50;4820642;28;101995;-74
2023/05/23 07:06:38;;;;;;;;;9.00;9.00;;;;;22.38;48.36;98021.50;4823222;29;104318;-74
2023/05/23 07:09:05;;;;;;;;;12.00;10.33;;;;;21.96;50.57;98019.41;4820627;29;102966;-74
2023/05/23 07:11:34;;;;;;;;;11.00;10.00;;;;;21.85;50.84;98018.63;4824270;28;102660;-74
2023/05/23 07:14:01;;;;;;;;;16.33;14.00;;;;;22.28;50.82;98024.34;4823093;29;102424;-74
2023/05/23 07:16:28;;;;;;;;;12.00;11.00;;;;;22.37;48.59;98012.41;4821075;28;103993;-74
2023/05/23 07:18:55;;;;;;;;;10.00;9.00;;;;;22.53;47.84;98021.31;4824033;28;102318;-72
2023/05/23 07:21:22;;;;;;;;;10.00;9.33;;;;;22.89;50.02;98008.78;4823731;28;102152;-74
2023/05/23 07:23:49;;;;;;;;;7.67;7.33;;;;;22.89;47.92;98013.50;4824776;29;101994;-73
2023/05/23 07:26:15;;;;;;;;;7.00;7.00;;;;;22.82;48.38;98011.09;4821194;29;104101;-74
2023/05/23 07:28:42;;;;;;;;;9.00;9.00;;;;;22.50;47.86;98010.91;4823464;28;101899;-74
2023/05/23 07:31:10;;;;;;;;;5.67;4.00;;;;;22.77;47.69;98011.16;4820450;28;106721;-73
2023/05/23 07:33:37;;;;;;;;;8.33;8.33;;;;;22.16;50.37;98014.53;4824833;29;102059;-74
2023/05/23 07:36:04;;;;;;;;;7.67;7.67;;;;;22.52;49.53;98008.66;4821193;28;103982;-73
2023/05/23 07:38:31;;;;;;;;;8.33;8.33;;;;;22.83;52.83;98012.72;4824548;29;101998;-74
2023/05/23 07:40:58;;;;;;;;;8.67;7.33;;;;;23.07;51.24;98009.94;4823532;28;102424;-74
2023/05/23 07:43:37;;;;;;;;;6.00;5.00;;;;;23.11;48.96;98003.53;4824959;29;102047;-74
2023/05/23 07:46:05;;;;;;;;;4.00;4.00;;;;;23.07;49.00;97999.75;4819430;28;104068;-74
2023/05/23 07:48:32;;;;;;;;;6.33;6.00;;;;;22.89;49.77;98014.31;4807853;28;101941;-73
2023/05/23 07:50:59;;;;;;;;;10.33;9.00;;;;;22.42;50.04;97973.78;4823044;28;102142;-74
2023/05/23 07:53:27;;;;;;;;;16.00;13.67;;;;;22.09;47.83;98013.25;4821103;28;102019;-73
2023/05/23 07:55:53;;;;;;;;;10.00;9.67;;;;;21.94;50.55;98008.69;4823759;29;104005;-74
2023/05/23 07:58:22;;;;;;;;;11.33;11.33;;;;;21.99;52.06;98000.38;4822930;28;102109;-73
2023/05/23 08:00:49;;;;;;;;;10.00;9.33;;;;;22.30;53.33;97989.06;4819887;28;102127;-74
2023/05/23 08:03:18;;;;;;;;;13.00;13.00;;;;;22.40;47.60;97994.47;4822898;28;102196;-73
2023/05/23 08:05:46;;;;;;;;;11.00;10.00;;;;;22.52;51.04;97992.13;4821389;28;104203;-74
2023/05/23 08:08:13;;;;;;;;;9.67;9.00;;;;;22.85;47.59;97991.22;4818267;29;101935;-73
2023/05/23 08:10:40;;;;;;;;;7.00;7.00;;;;;23.25;50.19;97994.53;4821947;28;103157;-73
2023/05/23 08:13:10;;;;;;;;;10.00;9.33;;;;;22.71;49.31;97987.53;4823353;28;102191;-73
2023/05/23 08:15:37;;;;;;;;;8.00;8.00;;;;;23.19;50.85;97987.47;4821392;28;104160;-73
2023/05/23 08:18:04;;;;;;;;;10.00;8.00;;;;;22.97;49.41;97985.25;4822331;29;102038;-73
2023/05/23 08:20:32;;;;;;;;;6.33;5.67;;;;;23.12;48.60;97991.41;4819050;29;102150;-73
2023/05/23 08:23:00;;;;;;;;;8.67;8.67;;;;;23.48;51.65;97988.16;4824483;29;101955;-74
2023/05/23 08:25:31;;;;;;;;;6.67;5.33;;;;;23.72;47.56;97990.81;4822757;28;103989;-74
2023/05/23 08:27:59;;;;;;;;;7.67;6.67;;;;;23.41;46.95;97965.59;4821134;28;102637;-73
2023/05/23 08:30:27;;;;;;;;;5.00;5.00;;;;;23.63;48.28;97990.69;4821315;28;102570;-74
2023/05/23 08:32:55;;;;;;;;;6.00;6.00;;;;;23.98;50.77;97990.09;4823035;28;102162;-73
2023/05/23 08:35:23;;;;;;;;;5.00;5.00;;;;;24.00;48.23;97990.59;4821643;29;104215;-73
2023/05/23 08:37:50;;;;;;;;;6.00;6.00;;;;;24.03;46.78;97983.66;4822432;29;101859;-73
2023/05/23 08:40:22;;;;;;;;;5.00;4.00;;;;;24.11;48.25;97994.00;4821325;28;102161;-73
2023/05/23 08:42:49;;;;;;;;;9.33;8.67;;;;;23.37;42.96;97986.66;4821322;29;101969;-73
2023/05/23 08:45:17;;;;;;;;;8.00;8.00;;;;;23.35;46.34;97986.09;4821978;28;104036;-73
2023/05/23 08:47:45;;;;;;;;;9.00;9.00;;;;;23.27;47.14;97987.59;4822356;28;102095;-72
2023/05/23 08:50:15;;;;;;;;;11.67;10.33;;;;;22.91;46.29;97973.50;4820618;28;102027;-73
2023/05/23 08:52:58;;;;;;;;;9.33;8.67;;;;;23.11;46.43;97981.47;4822974;29;102056;-73
2023/05/23 08:55:28;;;;;;;;;6.33;6.00;;;;;23.64;47.42;97978.50;4822188;28;112492;-73
2023/05/23 08:58:00;;;;;;;;;8.00;6.00;;;;;23.68;45.06;97971.28;4821489;29;102315;-72
2023/05/23 09:00:28;;;;;;;;;4.33;4.33;;;;;23.99;49.41;97971.56;4821249;29;102435;-72
2023/05/23 09:02:56;;;;;;;;;4.67;4.00;;;;;24.08;44.29;97963.41;4820087;28;102876;-73
2023/05/23 09:05:25;;;;;;;;;5.00;4.00;;;;;23.90;44.54;97968.69;4820050;29;104071;-73
2023/05/23 09:07:53;;;;;;;;;6.33;6.33;;;;;23.93;46.62;97968.06;4822740;29;103341;-72
2023/05/23 09:10:21;;;;;;;;;6.33;6.00;;;;;24.04;44.97;97973.44;4819369;29;101877;-73
2023/05/23 09:12:48;;;;;;;;;9.67;9.67;;;;;23.59;46.01;97972.25;4818353;28;102988;-72
2023/05/23 09:15:15;;;;;;;;;7.33;7.33;;;;;24.19;46.84;97970.41;4821995;28;104279;-73
2023/05/23 09:17:43;;;;;;;;;6.67;6.67;;;;;24.60;43.86;97960.19;4817641;28;102050;-73
2023/05/23 09:20:13;;;;;;;;;5.67;5.67;;;;;24.61;41.74;97970.16;4816379;28;102010;-73
2023/05/23 09:22:46;;;;;;;;;8.00;7.33;;;;;24.58;41.56;97951.41;4821861;28;102944;-73
2023/05/23 09:25:14;;;;;;;;;8.67;7.67;;;;;24.37;41.14;97958.44;4810870;29;104130;-72
2023/05/23 09:27:41;;;;;;;;;8.00;8.00;;;;;24.10;37.03;97961.13;4818525;28;102592;-71
2023/05/23 09:30:13;;;;;;;;;8.33;7.67;;;;;24.14;41.74;97965.75;4818774;29;102059;-73
2023/05/23 09:32:41;;;;;;;;;8.00;7.00;;;;;24.58;36.74;97961.66;4816772;29;104964;-73
2023/05/23 09:35:12;;;;;;;;;7.33;6.00;;;;;24.71;39.78;97956.13;4810140;28;104236;-73
2023/05/23 09:37:45;;;;;;;;;4.00;3.33;;;;;25.02;37.47;97961.84;4820156;28;101930;-72
2023/05/23 09:40:13;;;;;;;;;4.00;4.00;;;;;25.33;37.19;97957.25;4815442;28;101983;-72
2023/05/23 09:42:43;;;;;;;;;8.33;8.33;;;;;24.99;36.24;97958.88;4823110;28;102618;-72
2023/05/23 09:45:14;;;;;;;;;9.33;9.33;;;;;24.80;33.76;97934.91;4813587;28;104045;-72
2023/05/23 09:47:53;;;;;;;;;5.67;5.00;;;;;25.07;36.27;97944.31;4819117;29;104243;-72
2023/05/23 09:50:21;;;;;;;;;5.00;5.00;;;;;25.28;33.21;97943.53;4823402;28;102003;-72
2023/05/23 09:52:48;;;;;;;;;4.67;3.00;;;;;25.22;34.92;97944.78;4821393;28;101893;-73
2023/05/23 09:55:15;;;;;;;;;4.00;4.00;;;;;25.35;32.00;97937.56;4816204;28;104028;-73
2023/05/23 09:57:43;;;;;;;;;5.00;5.00;;;;;25.22;32.17;97935.66;4815114;28;102330;-73
2023/05/23 10:00:12;;;;;;;;;2.67;2.33;;;;;25.63;37.66;97938.28;4818627;29;102242;-73
2023/05/23 10:03:06;;;;;;;;;3.33;2.33;;;;;25.80;37.38;97945.91;4819824;28;102125;-73
2023/05/23 10:05:45;;;;;;;;;4.67;4.67;;;;;25.75;33.11;97953.22;4819786;29;108846;-72
2023/05/23 10:08:18;;;;;;;;;3.00;3.00;;;;;25.58;34.90;97939.22;4822053;28;102480;-72
2023/05/23 10:10:57;;;;;;;;;3.00;3.00;;;;;25.77;32.63;97930.72;4818881;28;101876;-72
2023/05/23 10:13:28;;;;;;;;;8.00;8.00;;;;;24.76;35.78;97939.41;4823231;28;102408;-72
2023/05/23 10:16:01;;;;;;;;;8.33;8.00;;;;;24.94;37.18;97936.88;4821302;28;104052;-72
2023/05/23 10:18:33;;;;;;;;;3.33;3.00;;;;;25.35;34.21;97934.81;4815353;29;102615;-72
2023/05/23 10:21:08;;;;;;;;;6.67;6.67;;;;;25.37;36.11;97935.31;4819565;28;102937;-72
2023/05/23 10:23:36;;;;;;;;;7.00;6.33;;;;;25.39;34.20;97921.16;4818002;28;102072;-71
2023/05/23 10:26:04;;;;;;;;;5.67;5.67;;;;;25.39;38.05;97927.50;4816426;29;104032;-72
2023/05/23 10:28:32;;;;;;;;;6.00;6.00;;;;;25.72;37.99;97926.16;4824330;28;102289;-72
2023/05/23 10:30:59;;;;;;;;;6.33;6.33;;;;;25.64;33.86;97929.69;4825055;28;102057;-73
2023/05/23 10:33:32;;;;;;;;;8.00;7.00;;;;;25.53;38.10;97921.91;4822610;28;102740;-73
2023/05/23 10:36:11;;;;;;;;;5.00;5.00;;;;;25.87;34.81;97924.13;4823580;28;108530;-72
2023/05/23 10:39:19;;;;;;;;;9.00;8.33;;;;;25.00;35.52;97919.81;4822083;28;101836;-73
2023/05/23 10:42:03;;;;;;;;;11.00;10.00;;;;;24.88;38.61;97914.84;4812849;28;102117;-72
2023/05/23 10:44:31;;;;;;;;;8.33;8.33;;;;;24.55;35.89;97905.00;4825040;28;102016;-72
2023/05/23 10:47:03;;;;;;;;;11.67;9.67;;;;;24.63;36.13;97918.09;4820067;28;108554;-72
2023/05/23 10:49:43;;;;;;;;;6.67;6.67;;;;;25.01;35.55;97913.16;4822601;28;101927;-72
2023/05/23 10:52:13;;;;;;;;;7.00;6.67;;;;;25.27;38.38;97914.22;4823145;28;102446;-72
2023/05/23 10:54:51;;;;;;;;;6.67;6.00;;;;;25.88;39.05;97901.66;4823026;29;102198;-73
2023/05/23 10:57:20;;;;;;;;;6.00;5.00;;;;;26.15;35.51;97901.47;4819142;28;104070;-73
2023/05/23 10:59:50;;;;;;;;;4.33;4.00;;;;;26.40;35.90;97897.19;4825266;28;102127;-72
2023/05/23 11:02:24;;;;;;;;;5.67;5.67;;;;;26.42;39.78;97894.91;4822837;28;102339;-74
2023/05/23 11:05:21;;;;;;;;;5.33;5.00;;;;;26.05;33.88;97889.84;4824017;28;102172;-73
2023/05/23 11:08:08;;;;;;;;;7.00;6.00;;;;;26.21;37.04;97899.38;4821503;28;108674;-74
2023/05/23 11:10:55;;;;;;;;;6.00;6.00;;;;;26.05;34.62;97893.44;4820296;28;102119;-73
2023/05/23 11:13:22;;;;;;;;;4.00;4.00;;;;;26.30;37.79;97891.91;4822256;28;101864;-72
2023/05/23 11:15:50;;;;;;;;;5.33;5.00;;;;;26.28;34.19;97893.41;4824060;28;102318;-73
2023/05/23 11:18:26;;;;;;;;;7.00;7.00;;;;;26.37;34.28;97883.97;4823230;29;103203;-73
2023/05/23 11:20:54;;;;;;;;;6.00;5.67;;;;;26.11;36.46;97885.81;4822573;29;102057;-74
2023/05/23 11:23:21;;;;;;;;;6.00;6.00;;;;;26.52;39.00;97869.66;4821641;28;102895;-73
2023/05/23 11:25:51;;;;;;;;;11.00;10.33;;;;;25.77;37.61;97872.56;4823759;28;103262;-72
2023/05/23 11:28:19;;;;;;;;;11.67;10.67;;;;;25.32;35.70;97871.75;4821856;28;104146;-72
2023/05/23 11:30:49;;;;;;;;;10.00;9.00;;;;;25.41;39.73;97864.34;4818836;29;102610;-73